Time;durP1;ratioP1;P1;durP2;ratioP2;P2;SDS_P1;SDS_P2;PMS_P1;PMS_P2;Temp;Humidity;BMP_temperature;BMP_pressure;BME280_temperature;BME280_humidity;BME280_pressure;Samples;Min_cycle;Max_cycle;Signal;HPM_P1;HPM_P2
2020/12/05 00:00:55;;;;;;;0.60;0.60;;;4.80;99.90;;;5.25;100.00;-20825.00;5053837;28;20486;-66
2020/12/05 00:03:23;;;;;;;0.60;0.60;;;4.70;99.90;;;5.28;100.00;-20825.84;5059717;28;20460;-67
2020/12/05 00:05:50;;;;;;;0.70;0.60;;;4.80;99.90;;;5.20;100.00;-20823.75;5039409;28;20491;-67
2020/12/05 00:08:17;;;;;;;0.60;0.57;;;4.70;99.90;;;5.13;100.00;-20821.81;5037517;28;20444;-68
2020/12/05 00:10:44;;;;;;;3.17;2.87;;;4.70;99.90;;;5.01;100.00;-20818.47;5053479;28;20451;-67
2020/12/05 00:13:11;;;;;;;0.60;0.60;;;4.60;99.90;;;4.92;100.00;-20815.97;5053392;28;20413;-66
2020/12/05 00:15:37;;;;;;;0.70;0.60;;;4.50;99.90;;;4.88;100.00;-20815.00;5049676;28;20562;-67
2020/12/05 00:18:04;;;;;;;0.70;0.60;;;4.50;99.90;;;4.79;100.00;-20812.63;5038876;28;20517;-68
2020/12/05 00:20:32;;;;;;;0.70;0.60;;;4.40;99.90;;;4.76;100.00;-20811.78;5032970;28;20453;-69
2020/12/05 00:23:00;;;;;;;0.60;0.50;;;4.40;99.90;;;4.73;100.00;-20810.94;5052627;28;20457;-67
2020/12/05 00:25:26;;;;;;;0.60;0.60;;;4.40;99.90;;;4.73;100.00;-20810.94;5052243;28;20479;-67
2020/12/05 00:27:54;;;;;;;0.70;0.60;;;4.40;99.90;;;4.71;100.00;-20810.25;5056287;28;20952;-67
2020/12/05 00:30:21;;;;;;;0.60;0.60;;;4.30;99.90;;;4.66;100.00;-20809.00;5032776;28;20440;-66
2020/12/05 00:32:48;;;;;;;0.60;0.60;;;4.30;99.90;;;4.79;100.00;-20812.63;5050113;28;20518;-66
2020/12/05 00:35:15;;;;;;;0.70;0.60;;;4.40;99.90;;;4.81;100.00;-20813.03;5045224;28;20452;-67
2020/12/05 00:37:43;;;;;;;0.60;0.50;;;4.40;99.90;;;4.77;100.00;-20811.94;5051658;28;20525;-68
2020/12/05 00:40:09;;;;;;;0.60;0.60;;;4.40;99.90;;;4.77;100.00;-20812.06;5052602;28;20451;-67
2020/12/05 00:42:36;;;;;;;0.60;0.60;;;4.40;99.90;;;4.78;100.00;-20812.22;5051960;28;20217;-68
2020/12/05 00:45:03;;;;;;;0.60;0.50;;;4.40;99.90;;;4.82;100.00;-20813.47;5034026;28;20480;-67
2020/12/05 00:47:30;;;;;;;0.60;0.60;;;4.40;99.90;;;4.86;100.00;-20814.44;5048716;28;20932;-67
2020/12/05 00:49:58;;;;;;;0.60;0.50;;;4.40;99.90;;;4.88;100.00;-20815.00;5033391;28;20798;-67
2020/12/05 00:52:25;;;;;;;0.70;0.50;;;4.50;99.90;;;4.87;100.00;-20814.56;5032986;28;20425;-67
2020/12/05 00:54:53;;;;;;;0.60;0.50;;;4.50;99.90;;;4.90;100.00;-20815.56;5044655;28;20504;-68
2020/12/05 00:57:20;;;;;;;0.60;0.57;;;4.50;99.90;;;4.90;100.00;-20815.56;5033866;28;20828;-67
2020/12/05 00:59:48;;;;;;;0.60;0.60;;;4.50;99.90;;;4.93;100.00;-20816.25;5035294;28;20797;-67
2020/12/05 01:02:14;;;;;;;0.60;0.50;;;4.50;99.90;;;5.01;100.00;-20818.47;5053008;28;20497;-67
2020/12/05 01:04:41;;;;;;;0.60;0.60;;;4.50;99.90;;;4.95;100.00;-20816.81;5046497;28;20445;-69
2020/12/05 01:07:08;;;;;;;0.60;0.60;;;4.50;99.90;;;4.90;100.00;-20815.56;5032938;28;20512;-67
2020/12/05 01:09:35;;;;;;;0.60;0.50;;;4.40;99.90;;;4.92;100.00;-20815.97;5032976;28;20917;-67
2020/12/05 01:12:03;;;;;;;0.60;0.50;;;4.50;99.90;;;4.91;100.00;-20815.81;5048503;28;20443;-67
2020/12/05 01:14:30;;;;;;;0.60;0.60;;;4.50;99.90;;;4.94;100.00;-20816.53;5052171;28;20852;-67
2020/12/05 01:16:58;;;;;;;0.70;0.60;;;4.50;99.90;;;4.92;100.00;-20816.09;5053090;28;20198;-67
2020/12/05 01:19:25;;;;;;;0.60;0.60;;;4.50;99.90;;;4.91;100.00;-20815.69;5052299;28;20435;-67
2020/12/05 01:21:52;;;;;;;0.60;0.50;;;4.50;99.90;;;4.92;100.00;-20816.09;5033221;28;20801;-67
2020/12/05 01:24:19;;;;;;;3.90;1.13;;;4.50;99.90;;;5.04;100.00;-20819.31;5045608;28;20431;-67
2020/12/05 01:26:47;;;;;;;0.60;0.60;;;4.50;99.90;;;5.02;100.00;-20818.88;5052607;28;20451;-68
2020/12/05 01:29:15;;;;;;;0.87;0.80;;;4.50;99.90;;;5.11;100.00;-20821.25;5055197;28;20220;-68
2020/12/05 01:31:46;;;;;;;0.60;0.60;;;4.60;99.90;;;5.15;100.00;-20822.38;5054998;28;20776;-67
2020/12/05 01:34:13;;;;;;;0.90;0.90;;;4.70;99.90;;;5.23;100.00;-20824.47;5043657;28;20441;-70
2020/12/05 01:36:43;;;;;;;0.60;0.60;;;4.70;99.90;;;5.35;100.00;-20827.66;5051495;28;20487;-67
2020/12/05 01:39:10;;;;;;;0.60;0.60;;;4.80;99.90;;;5.37;100.00;-20828.34;5036372;28;20435;-67
2020/12/05 01:41:38;;;;;;;0.60;0.50;;;4.90;99.90;;;5.40;100.00;-20829.06;5052200;28;20477;-67
2020/12/05 01:44:06;;;;;;;0.60;0.60;;;4.80;99.90;;;5.55;100.00;-20833.38;5041087;28;20441;-67
2020/12/05 01:46:39;;;;;;;0.60;0.50;;;4.90;99.90;;;5.52;100.00;-20832.38;5036021;28;20418;-67
2020/12/05 01:49:11;;;;;;;2.00;1.80;;;4.90;99.90;;;5.54;100.00;-20832.94;5036546;28;20471;-67
2020/12/05 01:51:39;;;;;;;0.60;0.60;;;4.90;99.90;;;5.56;100.00;-20833.66;5052351;28;20431;-67
2020/12/05 01:54:07;;;;;;;0.60;0.50;;;4.90;99.90;;;5.52;100.00;-20832.38;5051913;28;20913;-67
2020/12/05 01:56:34;;;;;;;0.70;0.60;;;4.90;99.90;;;5.47;100.00;-20831.13;5034772;28;20480;-67
2020/12/05 01:59:01;;;;;;;0.60;0.60;;;4.90;99.90;;;5.50;100.00;-20831.84;5018451;28;20849;-67
2020/12/05 02:01:29;;;;;;;0.70;0.60;;;4.90;99.90;;;5.44;100.00;-20830.31;5036580;28;20842;-67
2020/12/05 02:03:58;;;;;;;0.70;0.60;;;4.90;99.90;;;5.49;100.00;-20831.69;5037144;28;20760;-67
2020/12/05 02:06:45;;;;;;;0.60;0.60;;;4.90;99.90;;;5.44;100.00;-20830.16;5037595;28;20454;-67
2020/12/05 02:09:17;;;;;;;0.70;0.70;;;4.90;99.90;;;5.49;100.00;-20831.56;5055976;28;20423;-67
2020/12/05 02:11:52;;;;;;;0.70;0.53;;;4.90;99.90;;;5.33;100.00;-20827.25;5053479;28;20476;-67
2020/12/05 02:14:25;;;;;;;0.60;0.57;;;4.80;99.90;;;5.33;100.00;-20827.38;5050819;28;20805;-67
2020/12/05 02:16:54;;;;;;;0.60;0.53;;;4.80;99.90;;;5.28;100.00;-20826.00;5053716;28;20424;-67
2020/12/05 02:19:23;;;;;;;0.60;0.53;;;4.80;99.90;;;5.22;100.00;-20824.31;5045250;28;20437;-67
2020/12/05 02:21:54;;;;;;;0.60;0.50;;;4.70;99.90;;;5.15;100.00;-20822.22;5035634;28;20405;-67
2020/12/05 02:24:22;;;;;;;0.60;0.60;;;4.70;99.90;;;5.14;100.00;-20822.09;5049020;28;20756;-67
2020/12/05 02:26:49;;;;;;;0.70;0.50;;;4.70;99.90;;;5.02;100.00;-20818.75;5054550;28;20452;-67
2020/12/05 02:29:20;;;;;;;0.60;0.50;;;4.60;99.90;;;4.95;100.00;-20816.81;5038608;28;20454;-67
2020/12/05 02:31:52;;;;;;;0.60;0.60;;;4.50;99.90;;;4.98;100.00;-20817.63;5050768;28;20280;-66
2020/12/05 02:34:19;;;;;;;0.60;0.60;;;4.50;99.90;;;5.08;100.00;-20820.41;5035482;28;20416;-66
2020/12/05 02:36:48;;;;;;;0.70;0.70;;;4.60;99.90;;;5.03;100.00;-20819.16;5035061;28;20532;-66
2020/12/05 02:39:17;;;;;;;0.70;0.60;;;4.60;99.90;;;5.03;100.00;-20819.16;5047492;28;20482;-66
2020/12/05 02:41:45;;;;;;;0.63;0.60;;;4.50;99.90;;;4.97;100.00;-20817.34;5049633;28;20523;-67
2020/12/05 02:44:12;;;;;;;0.70;0.60;;;4.50;99.90;;;4.92;100.00;-20816.09;5034679;28;20203;-67
2020/12/05 02:46:39;;;;;;;0.60;0.50;;;4.50;99.90;;;4.97;100.00;-20817.50;5044718;28;20275;-66
2020/12/05 02:49:06;;;;;;;1.57;0.93;;;4.50;99.90;;;4.91;100.00;-20815.81;5055283;28;20428;-67
2020/12/05 02:51:33;;;;;;;0.60;0.50;;;4.50;99.90;;;4.88;100.00;-20815.00;5034896;28;20840;-67
2020/12/05 02:54:00;;;;;;;1.17;0.95;;;4.40;99.90;;;4.80;100.00;-20812.91;5045565;28;20472;-67
2020/12/05 02:56:27;;;;;;;0.60;0.60;;;4.40;99.90;;;4.78;100.00;-20812.22;5045763;28;20696;-67
2020/12/05 02:58:55;;;;;;;0.70;0.60;;;4.40;99.90;;;4.72;100.00;-20810.53;5034576;28;20465;-67
2020/12/05 03:01:22;;;;;;;0.60;0.50;;;4.30;99.90;;;4.66;100.00;-20809.00;5034112;28;20487;-67
2020/12/05 03:03:49;;;;;;;0.60;0.60;;;4.30;99.90;;;4.77;100.00;-20811.94;5034661;28;20471;-66
2020/12/05 03:06:16;;;;;;;1.00;1.00;;;4.40;99.90;;;4.77;100.00;-20812.06;5034455;28;20440;-66
2020/12/05 03:08:42;;;;;;;0.63;0.60;;;4.30;99.90;;;4.82;100.00;-20813.47;5035001;28;20417;-66
2020/12/05 03:11:09;;;;;;;0.60;0.60;;;4.40;99.90;;;4.85;100.00;-20814.28;5047488;28;20630;-66
2020/12/05 03:13:36;;;;;;;0.70;0.60;;;4.40;99.90;;;4.79;100.00;-20812.50;5069991;28;20236;-67
2020/12/05 03:16:07;;;;;;;0.60;0.55;;;4.40;99.90;;;4.75;100.00;-20811.50;5053767;28;20436;-67
2020/12/05 03:18:34;;;;;;;0.60;0.50;;;4.30;99.90;;;4.73;100.00;-20810.94;5054510;28;20225;-67
2020/12/05 03:21:02;;;;;;;0.60;0.50;;;4.30;99.90;;;4.72;100.00;-20810.53;5058582;28;20461;-67
2020/12/05 03:23:28;;;;;;;0.70;0.60;;;4.30;99.90;;;4.72;100.00;-20810.69;5042752;28;20433;-66
2020/12/05 03:25:56;;;;;;;0.60;0.60;;;4.30;99.90;;;4.78;100.00;-20812.34;5018727;28;20479;-67
2020/12/05 03:28:25;;;;;;;0.70;0.60;;;4.30;99.90;;;4.77;100.00;-20812.06;5050323;28;20494;-67
2020/12/05 03:30:52;;;;;;;0.70;0.60;;;4.30;99.90;;;4.78;100.00;-20812.34;5048770;28;20449;-68
2020/12/05 03:33:21;;;;;;;0.60;0.50;;;4.40;99.90;;;4.78;100.00;-20812.22;5036269;28;20555;-67
2020/12/05 03:35:48;;;;;;;0.60;0.50;;;4.40;99.90;;;4.80;100.00;-20812.91;5039180;28;20488;-67
2020/12/05 03:38:15;;;;;;;0.60;0.60;;;4.40;99.90;;;4.79;100.00;-20812.50;5032336;28;20491;-67
2020/12/05 03:40:42;;;;;;;0.60;0.60;;;4.40;99.90;;;4.78;100.00;-20812.22;5042150;28;20304;-70
2020/12/05 03:43:08;;;;;;;0.60;0.50;;;4.30;99.90;;;4.71;100.00;-20810.41;5034205;28;20456;-66
2020/12/05 03:45:35;;;;;;;0.70;0.60;;;4.30;99.90;;;4.70;100.00;-20809.97;5051695;28;20498;-67
2020/12/05 03:48:02;;;;;;;0.60;0.50;;;4.20;99.90;;;4.64;100.00;-20808.31;5038610;28;20507;-67
2020/12/05 03:50:30;;;;;;;0.60;0.60;;;4.20;99.90;;;4.73;100.00;-20810.94;5032859;28;20606;-68
2020/12/05 03:52:57;;;;;;;0.70;0.50;;;4.30;99.90;;;4.81;100.00;-20813.19;5033570;28;20469;-68
2020/12/05 03:55:24;;;;;;;0.70;0.60;;;4.30;99.90;;;4.82;100.00;-20813.31;5032864;28;20503;-68
2020/12/05 03:57:51;;;;;;;0.70;0.63;;;4.30;99.90;;;4.89;100.00;-20815.13;5037105;28;20503;-68
2020/12/05 04:00:18;;;;;;;0.83;0.83;;;4.40;99.90;;;4.80;100.00;-20812.91;5052765;28;20419;-68
2020/12/05 04:02:45;;;;;;;0.60;0.50;;;4.30;99.90;;;4.81;100.00;-20813.19;5048642;28;20441;-68
2020/12/05 04:05:11;;;;;;;0.60;0.50;;;4.30;99.90;;;4.80;100.00;-20812.91;5042261;28;20449;-68
2020/12/05 04:07:39;;;;;;;0.60;0.60;;;4.40;99.90;;;4.81;100.00;-20813.19;5034785;28;20493;-69
2020/12/05 04:10:06;;;;;;;0.60;0.60;;;4.40;99.90;;;4.99;100.00;-20818.06;5052236;28;20300;-68
2020/12/05 04:12:33;;;;;;;0.67;0.60;;;4.50;99.90;;;4.87;100.00;-20814.72;5052018;28;20444;-68
2020/12/05 04:15:00;;;;;;;0.67;0.60;;;4.40;99.90;;;4.83;100.00;-20813.59;5051496;28;20476;-69
2020/12/05 04:17:27;;;;;;;0.70;0.50;;;4.40;99.90;;;4.86;100.00;-20814.44;5053014;28;20534;-69
2020/12/05 04:19:54;;;;;;;0.60;0.50;;;4.40;99.90;;;4.89;100.00;-20815.13;5050196;28;20446;-67
2020/12/05 04:22:20;;;;;;;0.60;0.50;;;4.40;99.90;;;4.82;100.00;-20813.31;5053346;28;20489;-67
2020/12/05 04:24:48;;;;;;;0.63;0.60;;;4.40;99.90;;;4.83;100.00;-20813.75;5038005;28;20453;-67
2020/12/05 04:27:15;;;;;;;0.73;0.73;;;4.40;99.90;;;4.89;100.00;-20815.13;5033224;28;20773;-66
2020/12/05 04:29:42;;;;;;;0.60;0.60;;;4.40;99.90;;;4.92;100.00;-20816.09;5049703;28;20847;-67
2020/12/05 04:32:09;;;;;;;0.80;0.70;;;4.40;99.90;;;5.01;100.00;-20818.47;5052995;28;20174;-68
2020/12/05 04:34:36;;;;;;;0.60;0.60;;;4.40;99.90;;;4.93;100.00;-20816.25;5047972;28;20217;-68
2020/12/05 04:37:02;;;;;;;0.70;0.60;;;4.40;99.90;;;4.96;100.00;-20817.09;5040593;28;20539;-66
2020/12/05 04:39:29;;;;;;;0.70;0.60;;;4.40;99.90;;;4.93;100.00;-20816.25;5051204;28;20481;-67
2020/12/05 04:41:57;;;;;;;0.60;0.60;;;4.40;99.90;;;4.91;100.00;-20815.69;5038781;28;20455;-66
2020/12/05 04:44:24;;;;;;;0.63;0.60;;;4.40;99.90;;;5.10;100.00;-20820.97;5051318;28;20482;-67
2020/12/05 04:46:52;;;;;;;0.60;0.60;;;4.50;99.90;;;5.13;100.00;-20821.69;5053077;28;20522;-67
2020/12/05 04:49:23;;;;;;;0.70;0.67;;;4.60;99.90;;;5.15;100.00;-20822.22;5039849;28;20459;-66
2020/12/05 04:51:56;;;;;;;0.60;0.50;;;4.60;99.90;;;5.11;100.00;-20821.25;5048196;28;20436;-67
2020/12/05 04:54:26;;;;;;;0.60;0.50;;;4.60;99.90;;;5.01;100.00;-20818.47;5033128;28;20429;-68
2020/12/05 04:56:56;;;;;;;1.80;1.65;;;4.50;99.90;;;4.91;100.00;-20815.81;5033159;28;20443;-67
2020/12/05 04:59:23;;;;;;;0.60;0.60;;;4.40;99.90;;;4.89;100.00;-20815.13;5047140;28;20284;-67
2020/12/05 05:01:52;;;;;;;0.60;0.60;;;4.40;99.90;;;4.82;100.00;-20813.47;5053337;28;20943;-67
2020/12/05 05:04:20;;;;;;;0.60;0.50;;;4.40;99.90;;;4.78;100.00;-20812.34;5054025;28;20531;-69
2020/12/05 05:06:46;;;;;;;0.60;0.60;;;4.30;99.90;;;4.83;100.00;-20813.59;5037077;28;20964;-67
2020/12/05 05:09:13;;;;;;;0.60;0.50;;;4.30;99.90;;;4.66;100.00;-20808.88;5049489;28;20538;-67
2020/12/05 05:11:54;;;;;;;0.70;0.60;;;4.30;99.90;;;4.53;100.00;-20805.38;5044487;28;20495;-67
2020/12/05 05:14:31;;;;;;;0.60;0.60;;;4.20;99.90;;;4.43;100.00;-20802.59;5034911;28;20265;-67
2020/12/05 05:17:06;;;;;;;0.60;0.60;;;4.10;99.90;;;4.45;100.00;-20803.16;5036078;28;20428;-68
2020/12/05 05:19:35;;;;;;;0.60;0.50;;;4.10;99.90;;;4.34;100.00;-20800.38;5036643;28;20197;-67
2020/12/05 05:22:03;;;;;;;0.60;0.60;;;4.00;99.90;;;4.35;100.00;-20800.66;5048191;28;20638;-67
2020/12/05 05:24:30;;;;;;;0.63;0.60;;;4.00;99.90;;;4.31;100.00;-20799.53;5053496;28;20443;-67
2020/12/05 05:27:00;;;;;;;0.70;0.60;;;4.00;99.90;;;4.18;100.00;-20795.91;5056554;28;20431;-67
2020/12/05 05:29:33;;;;;;;0.60;0.60;;;3.90;99.90;;;4.13;100.00;-20794.38;5043309;28;20939;-68
2020/12/05 05:34:36;;;;;;;0.70;0.60;;;3.80;99.90;;;3.94;100.00;-20789.22;5046112;28;20285;-69
2020/12/05 05:37:13;;;;;;;0.70;0.60;;;3.70;99.90;;;3.89;100.00;-20787.97;5069910;28;20244;-67
2020/12/05 05:39:44;;;;;;;0.70;0.60;;;3.70;99.90;;;3.93;100.00;-20788.94;5049454;28;20204;-67
2020/12/05 05:42:11;;;;;;;0.60;0.50;;;3.60;99.90;;;3.82;100.00;-20786.16;5053168;28;20233;-67
2020/12/05 05:44:39;;;;;;;0.60;0.60;;;3.60;99.90;;;3.76;100.00;-20784.47;5050046;28;20220;-66
2020/12/05 05:47:07;;;;;;;0.60;0.50;;;3.50;99.90;;;3.69;100.00;-20782.53;5034281;28;20292;-66
2020/12/05 05:49:34;;;;;;;0.60;0.60;;;3.50;99.90;;;3.58;100.00;-20779.59;5038571;28;20197;-68
2020/12/05 05:52:02;;;;;;;0.70;0.60;;;3.40;99.90;;;3.55;100.00;-20778.63;5054208;28;20251;-67
2020/12/05 05:54:33;;;;;;;0.60;0.60;;;3.30;99.90;;;3.56;100.00;-20778.91;5046232;28;20268;-66
2020/12/05 05:57:04;;;;;;;0.60;0.60;;;3.30;99.90;;;3.54;100.00;-20778.34;5055260;28;20169;-66
2020/12/05 05:59:35;;;;;;;0.70;0.70;;;3.30;99.90;;;3.50;100.00;-20777.38;5055639;28;20280;-67
2020/12/05 06:02:04;;;;;;;0.70;0.60;;;3.20;99.90;;;3.41;100.00;-20774.72;5069768;28;20194;-67
2020/12/05 06:04:34;;;;;;;0.70;0.60;;;3.20;99.90;;;3.28;100.00;-20771.38;5050048;28;20190;-66
2020/12/05 06:07:04;;;;;;;0.68;0.60;;;3.20;99.90;;;3.32;100.00;-20772.50;5036060;28;20266;-67
2020/12/05 06:09:48;;;;;;;0.70;0.60;;;3.20;99.90;;;3.34;100.00;-20773.03;5041472;28;20213;-66
2020/12/05 06:12:20;;;;;;;0.70;0.60;;;3.10;99.90;;;3.34;100.00;-20773.03;5056082;28;20174;-67
2020/12/05 06:14:49;;;;;;;0.60;0.60;;;3.20;99.90;;;3.31;100.00;-20772.19;5047296;28;20239;-66
2020/12/05 06:17:19;;;;;;;0.70;0.60;;;3.10;99.90;;;3.38;100.00;-20774.16;5054220;28;20547;-66
2020/12/05 06:19:49;;;;;;;0.70;0.60;;;3.20;99.90;;;3.65;100.00;-20781.28;5050701;28;20247;-66
2020/12/05 06:22:42;;;;;;;0.60;0.52;;;3.40;99.90;;;3.78;100.00;-20785.03;5046221;28;20200;-66
2020/12/05 06:25:11;;;;;;;0.70;0.60;;;3.50;99.90;;;3.73;100.00;-20783.66;5035309;28;20594;-67
2020/12/05 06:27:43;;;;;;;0.70;0.50;;;3.50;99.90;;;3.73;100.00;-20783.66;5043633;28;20205;-66
2020/12/05 06:30:11;;;;;;;0.68;0.60;;;3.40;99.90;;;3.65;100.00;-20781.41;5050432;28;20597;-67
2020/12/05 06:32:44;;;;;;;0.60;0.50;;;3.40;99.90;;;3.67;100.00;-20781.97;5047116;28;20214;-68
2020/12/05 06:35:32;;;;;;;0.60;0.50;;;3.30;99.90;;;3.75;100.00;-20784.19;5038373;28;20251;-66
2020/12/05 06:38:00;;;;;;;0.70;0.60;;;3.40;99.90;;;3.91;100.00;-20788.53;5049759;28;20321;-66
2020/12/05 06:40:27;;;;;;;0.60;0.60;;;3.60;99.90;;;3.97;100.00;-20790.06;5048666;28;20210;-67
2020/12/05 06:42:56;;;;;;;0.60;0.60;;;3.70;99.90;;;3.94;100.00;-20789.34;5065891;28;20198;-66
2020/12/05 06:45:42;;;;;;;0.70;0.60;;;3.60;99.90;;;3.91;100.00;-20788.53;5052306;28;20295;-68
2020/12/05 06:48:32;;;;;;;0.60;0.60;;;3.60;99.90;;;4.07;100.00;-20792.97;5041431;28;20248;-70
2020/12/05 06:51:00;;;;;;;0.70;0.60;;;3.70;99.90;;;4.22;100.00;-20797.03;5043282;28;20726;-67
2020/12/05 06:53:32;;;;;;;0.70;0.70;;;3.80;99.90;;;4.46;100.00;-20803.44;5049092;28;20186;-66
2020/12/05 06:56:00;;;;;;;0.60;0.60;;;3.90;99.90;;;4.43;100.00;-20802.75;5045961;28;20555;-69
2020/12/05 06:58:29;;;;;;;0.60;0.60;;;3.90;99.90;;;4.54;100.00;-20805.81;5038878;28;20381;-66
2020/12/05 07:00:56;;;;;;;0.60;0.60;;;4.00;99.90;;;4.59;100.00;-20807.06;5051932;28;20197;-68
2020/12/05 07:03:26;;;;;;;0.60;0.60;;;4.10;99.90;;;4.59;100.00;-20807.06;5033726;28;20186;-67
2020/12/05 07:05:56;;;;;;;0.70;0.60;;;4.10;99.90;;;4.60;100.00;-20807.47;5042904;28;20187;-67
2020/12/05 07:08:35;;;;;;;0.60;0.60;;;4.10;99.90;;;4.56;100.00;-20806.22;5054527;28;20581;-67
2020/12/05 07:11:07;;;;;;;0.60;0.60;;;4.10;99.90;;;4.54;100.00;-20805.66;5041731;28;20216;-67
2020/12/05 07:13:40;;;;;;;0.70;0.60;;;4.00;99.90;;;4.48;100.00;-20804.00;5037497;28;20205;-67
2020/12/05 07:16:17;;;;;;;0.60;0.60;;;4.00;99.90;;;4.59;100.00;-20807.19;5054591;28;20800;-67
2020/12/05 07:18:46;;;;;;;0.60;0.60;;;4.00;99.90;;;4.59;100.00;-20807.06;5053081;28;20948;-67
2020/12/05 07:21:15;;;;;;;0.60;0.60;;;4.00;99.90;;;4.74;100.00;-20811.09;5052958;28;20451;-67
2020/12/05 07:23:42;;;;;;;0.68;0.60;;;4.10;99.90;;;4.76;100.00;-20811.78;5045547;28;20441;-67
2020/12/05 07:26:10;;;;;;;0.60;0.50;;;4.20;99.90;;;4.83;100.00;-20813.75;5033687;28;20710;-66
2020/12/05 07:28:38;;;;;;;0.60;0.60;;;4.30;99.90;;;4.88;100.00;-20814.84;5040132;28;20502;-66
2020/12/05 07:31:04;;;;;;;0.60;0.50;;;4.40;99.90;;;5.00;100.00;-20818.19;5038172;28;20452;-66
2020/12/05 07:33:35;;;;;;;0.60;0.60;;;4.40;99.90;;;5.27;100.00;-20825.72;5051832;28;20200;-67
2020/12/05 07:36:05;;;;;;;0.60;0.60;;;4.60;99.90;;;5.32;100.00;-20827.09;5048424;28;20927;-66
2020/12/05 07:38:34;;;;;;;3.53;1.17;;;4.70;99.90;;;5.23;100.00;-20824.59;5043840;28;20497;-67
2020/12/05 07:41:09;;;;;;;0.80;0.80;;;4.70;99.90;;;5.39;100.00;-20828.78;5036877;28;20496;-67
2020/12/05 07:43:36;;;;;;;0.87;0.87;;;4.70;99.90;;;5.42;100.00;-20829.59;5039377;28;20458;-68
2020/12/05 07:46:06;;;;;;;0.60;0.60;;;4.70;99.90;;;5.30;100.00;-20826.41;5050968;28;20444;-66
2020/12/05 07:48:34;;;;;;;0.60;0.53;;;4.70;99.90;;;5.41;100.00;-20829.47;5053725;28;20537;-68
2020/12/05 07:51:01;;;;;;;0.90;0.90;;;4.70;99.90;;;5.41;100.00;-20829.31;5046514;28;20448;-67
2020/12/05 07:53:34;;;;;;;0.60;0.50;;;4.70;99.90;;;5.29;100.00;-20826.13;5035505;28;20491;-67
2020/12/05 07:56:16;;;;;;;0.60;0.60;;;4.70;99.90;;;5.12;100.00;-20821.53;5062912;28;20525;-68
2020/12/05 07:58:49;;;;;;;0.70;0.70;;;4.60;99.90;;;5.07;100.00;-20820.13;5053286;28;20845;-67
2020/12/05 08:01:55;;;;;;;0.60;0.60;;;4.60;99.90;;;4.92;100.00;-20815.97;5038270;28;20451;-67
2020/12/05 08:04:47;;;;;;;0.60;0.60;;;4.50;99.90;;;4.84;100.00;-20814.00;5031111;28;20514;-67
2020/12/05 08:07:37;;;;;;;0.60;0.60;;;4.40;99.90;;;4.76;100.00;-20811.66;5045503;28;20837;-67
2020/12/05 08:10:10;;;;;;;0.70;0.67;;;4.40;99.90;;;4.77;100.00;-20811.94;5058053;28;20459;-67
2020/12/05 08:13:30;;;;;;;0.60;0.60;;;4.40;99.90;;;5.01;100.00;-20818.47;5033415;28;20520;-68
2020/12/05 08:16:02;;;;;;;2.60;2.40;;;4.50;99.90;;;5.21;100.00;-20824.03;5048606;28;20943;-67
2020/12/05 08:18:31;;;;;;;0.60;0.60;;;4.70;99.90;;;5.40;100.00;-20829.06;5051513;28;20862;-67
2020/12/05 08:21:00;;;;;;;0.70;0.60;;;4.80;99.90;;;5.57;100.00;-20833.78;5041909;28;20441;-67
2020/12/05 08:23:31;;;;;;;0.60;0.50;;;4.90;99.90;;;5.73;100.00;-20838.22;5033101;28;20943;-67
2020/12/05 08:26:02;;;;;;;0.60;0.60;;;5.00;99.90;;;5.74;100.00;-20838.38;5044755;28;20474;-67
2020/12/05 08:28:35;;;;;;;0.60;0.50;;;5.10;99.90;;;5.86;100.00;-20841.56;5046915;28;20441;-67
2020/12/05 08:31:05;;;;;;;0.60;0.57;;;5.10;99.90;;;5.82;100.00;-20840.59;5033381;28;20517;-67
2020/12/05 08:33:40;;;;;;;0.60;0.60;;;5.20;99.90;;;6.03;100.00;-20846.31;5049906;28;20486;-67
2020/12/05 08:36:16;;;;;;;0.60;0.60;;;5.30;99.90;;;6.30;100.00;-20853.69;5052865;28;20447;-67
2020/12/05 08:38:44;;;;;;;0.60;0.50;;;5.50;99.90;;;6.35;100.00;-20854.94;5044309;28;20463;-67
2020/12/05 08:41:12;;;;;;;0.60;0.50;;;5.50;99.90;;;6.24;100.00;-20852.16;5051702;28;20463;-67
2020/12/05 08:43:39;;;;;;;0.60;0.60;;;5.50;99.90;;;6.59;100.00;-20861.59;5046954;28;20532;-67
2020/12/05 08:46:18;;;;;;;0.60;0.50;;;5.60;99.90;;;6.53;100.00;-20859.94;5057164;28;20944;-67
2020/12/05 08:48:45;;;;;;;1.43;1.33;;;5.70;99.90;;;6.96;100.00;-20871.75;5051949;28;20435;-67
2020/12/05 08:51:12;;;;;;;0.60;0.60;;;5.80;99.90;;;6.93;100.00;-20870.91;5045204;28;20450;-67
2020/12/05 08:53:39;;;;;;;0.60;0.57;;;5.90;99.90;;;6.91;100.00;-20870.22;5051523;28;20442;-67
2020/12/05 08:56:06;;;;;;;0.70;0.60;;;5.90;99.90;;;6.73;100.00;-20865.50;5044340;28;20992;-67
2020/12/05 08:58:45;;;;;;;0.70;0.60;;;5.90;99.90;;;6.98;100.00;-20872.16;5056015;28;20525;-67
2020/12/05 09:01:13;;;;;;;0.70;0.60;;;6.10;99.90;;;7.20;100.00;-20878.28;5049398;28;20441;-67
2020/12/05 09:03:40;;;;;;;0.70;0.60;;;6.20;99.90;;;7.46;100.00;-20885.34;5048815;28;20464;-67
2020/12/05 09:06:08;;;;;;;0.70;0.60;;;6.30;99.90;;;7.77;100.00;-20893.69;5051811;28;20482;-67
2020/12/05 09:08:35;;;;;;;0.70;0.60;;;6.50;99.90;;;7.87;100.00;-20896.31;5043286;28;20500;-67
2020/12/05 09:11:02;;;;;;;0.70;0.60;;;6.50;99.90;;;8.04;100.00;-20901.03;5037102;28;20572;-66
2020/12/05 09:13:29;;;;;;;0.70;0.60;;;6.70;99.90;;;7.90;100.00;-20897.16;5044026;28;20446;-68
2020/12/05 09:16:01;;;;;;;0.70;0.60;;;6.80;99.90;;;8.12;100.00;-20903.25;5042063;28;20462;-67
2020/12/05 09:18:40;;;;;;;0.70;0.60;;;6.80;99.90;;;8.26;100.00;-20907.00;5051692;28;20561;-67
2020/12/05 09:21:14;;;;;;;0.70;0.60;;;6.90;99.90;;;8.17;100.00;-20904.66;5054115;28;20996;-67
2020/12/05 09:23:42;;;;;;;0.70;0.60;;;6.90;99.90;;;7.79;100.00;-20894.25;5042029;28;20442;-67
2020/12/05 09:26:09;;;;;;;0.70;0.60;;;6.80;99.90;;;7.56;100.00;-20888.00;5056745;28;20442;-67
2020/12/05 09:28:36;;;;;;;0.70;0.60;;;6.70;99.90;;;7.46;100.00;-20885.22;5048248;28;20442;-67
2020/12/05 09:31:08;;;;;;;0.70;0.60;;;6.60;99.90;;;7.55;100.00;-20887.72;5039246;28;20434;-67
2020/12/05 09:33:36;;;;;;;0.70;0.60;;;6.60;99.90;;;7.53;100.00;-20887.16;5041089;28;20531;-67
2020/12/05 09:36:04;;;;;;;0.70;0.60;;;6.60;99.90;;;7.38;100.00;-20883.00;5043491;28;20452;-68
2020/12/05 09:38:31;;;;;;;0.70;0.60;;;6.60;99.90;;;7.26;100.00;-20879.81;5052306;28;20500;-66
2020/12/05 09:40:58;;;;;;;0.70;0.60;;;6.60;99.90;;;7.14;100.00;-20876.59;5043135;28;20488;-66
2020/12/05 09:43:25;;;;;;;0.70;0.60;;;6.50;99.90;;;7.22;100.00;-20878.81;5042148;28;20732;-67
2020/12/05 09:45:52;;;;;;;0.70;0.60;;;6.50;99.90;;;7.17;100.00;-20877.44;5046148;28;20469;-68
2020/12/05 09:48:20;;;;;;;0.70;0.60;;;6.60;99.90;;;7.24;100.00;-20879.38;5044981;28;20495;-67
2020/12/05 09:50:48;;;;;;;0.70;0.60;;;6.70;99.90;;;7.41;100.00;-20883.81;5045932;28;20441;-66
2020/12/05 09:53:15;;;;;;;0.70;0.60;;;6.80;99.90;;;7.44;100.00;-20884.66;5045761;28;20501;-66
2020/12/05 09:55:42;;;;;;;0.70;0.60;;;6.80;99.90;;;7.33;100.00;-20881.59;5049213;28;20495;-67
2020/12/05 09:58:10;;;;;;;0.70;0.60;;;6.80;99.90;;;7.34;100.00;-20881.88;5042695;28;20449;-67
2020/12/05 10:00:37;;;;;;;0.70;0.60;;;6.80;99.90;;;7.14;100.00;-20876.59;5055082;28;20988;-67
2020/12/05 10:03:04;;;;;;;0.63;0.60;;;6.80;99.90;;;7.36;100.00;-20882.44;5044097;28;20962;-67
2020/12/05 10:05:32;;;;;;;0.70;0.60;;;6.80;99.90;;;7.39;100.00;-20883.41;5052672;28;20455;-67
2020/12/05 10:07:59;;;;;;;0.70;0.63;;;7.00;99.90;;;7.54;100.00;-20887.44;5048799;28;20755;-68
2020/12/05 10:10:26;;;;;;;0.70;0.60;;;7.00;99.90;;;7.78;100.00;-20893.81;5044383;28;20449;-66
2020/12/05 10:12:54;;;;;;;0.70;0.60;;;7.20;99.90;;;7.61;100.00;-20889.38;5044904;28;20439;-67
2020/12/05 10:15:21;;;;;;;0.70;0.60;;;7.20;99.90;;;7.79;100.00;-20894.09;5049424;28;20469;-67
2020/12/05 10:17:48;;;;;;;0.70;0.63;;;7.20;99.90;;;7.90;100.00;-20897.16;5047503;28;20431;-67
2020/12/05 10:20:16;;;;;;;0.70;0.60;;;7.30;99.90;;;8.18;100.00;-20904.91;5049328;28;20454;-67
2020/12/05 10:22:44;;;;;;;0.70;0.60;;;7.40;99.90;;;7.95;100.00;-20898.69;5041935;28;20498;-69
2020/12/05 10:25:11;;;;;;;0.70;0.60;;;7.40;99.90;;;7.98;100.00;-20899.50;5043113;28;20886;-67
2020/12/05 10:27:38;;;;;;;0.70;0.60;;;7.40;99.90;;;8.24;100.00;-20906.59;5045129;28;20537;-68
2020/12/05 10:30:07;;;;;;;0.70;0.60;;;7.60;99.90;;;7.91;100.00;-20897.44;5040093;28;20421;-68
2020/12/05 10:32:34;;;;;;;0.70;0.60;;;7.40;99.90;;;7.89;100.00;-20896.88;5037611;28;20438;-66